Aviation Digital Data Service (ADDS)

Output produced by METARs form (2110 UTC 22 October 2017)
found at http://www.aviationweather.gov/adds/metars/
 
KJAN 222054Z 00000KT 10SM SCT015 OVC095 21/17 A3000 RMK AO2 SLP156 60000 T02110172 56020
KJAN 222022Z 23004KT 10SM BKN015 OVC090 21/17 A3002 RMK AO2 T02110172
KJAN 221954Z VRB03KT 10SM FEW010 BKN014 OVC085 21/18 A3001 RMK AO2 SLP159 T02110178
KJAN 221934Z 25006KT 10SM BKN010 BKN017 OVC080 21/18 A3003 RMK AO2 T02110178
KJAN 221854Z 32004KT 10SM SCT060 OVC080 22/18 A3003 RMK AO2 RAE23 SLP166 P0000 T02170178
KJAN 221815Z 35006KT 8SM -RA FEW006 BKN048 OVC075 20/18 A3005 RMK AO2 P0000 T02000178
KJAN 221754Z 29003KT 10SM -RA BKN006 OVC011 19/18 A3006 RMK AO2 CIG 005V009 SLP176 P0006 60031 T01940178 10244 20189 50004
KJAN 221702Z 32004KT 4SM RA BR BKN005 OVC027 19/18 A3007 RMK AO2 P0003 T01940178
KJAN 221654Z 33005KT 5SM RA BR BKN004 BKN014 OVC029 19/18 A3006 RMK AO2 RAB1559 SLP177 P0022 T01890178
KJAN 221651Z 32005KT 5SM RA BR BKN004 BKN015 OVC026 19/18 A3007 RMK AO2 RAB1559 P0022
KJAN 221644Z 32005KT 2 1/2SM -RA BR BKN004 BKN015 OVC030 19/18 A3006 RMK AO2 RAB1559 P0021 T01940178
KJAN 221632Z 31008KT 1SM +RA BR FEW006 BKN018 OVC028 19/18 A3007 RMK AO2 RAB1559 P0010 T01940178 RVRNO
KJAN 221612Z 31009G15KT 260V350 4SM -RA BR FEW006 BKN018 OVC029 23/21 A3006 RMK AO2 RAB1559 P0001 T02280206
KJAN 221554Z 26006KT 10SM BKN012 OVC019 23/21 A3005 RMK AO2 RAB11E28 SLP171 P0000 T02280206
KJAN 221505Z 00000KT 10SM BKN013 BKN085 23/21 A3003 RMK AO2 T02330206
KJAN 221454Z 15004KT 10SM SCT015 BKN085 BKN110 23/21 A3003 RMK AO2 SLP165 60003 T02330206 51014
KJAN 221354Z 15006KT 10SM FEW030 SCT100 OVC120 23/21 A3002 RMK AO2 RAE40 SLP161 P0001 T02280206
KJAN 221254Z 00000KT 10SM -RA BKN030 BKN120 22/19 A3000 RMK AO2 LTG DSNT W SLP155 P0002 T02220194
KJAN 221154Z 21009G21KT 10SM -RA BKN110 23/20 A2999 RMK AO2 PK WND 15029/1136 RAB38 SLP150 P0000 60005 70006 T02330200 10244 20228 53000
KJAN 221054Z 16020G26KT 10SM SCT100 BKN200 23/20 A2999 RMK AO2 PK WND 15032/0955 RAE01 SLP151 P0001 T02330200
KJAN 221022Z AUTO 16021G31KT 10SM FEW110 23/19 A2998 RMK AO2 PK WND 15032/0955 RAE01 P0000 T02330194
KJAN 220954Z AUTO 15022G33KT 10SM -RA FEW075 SCT100 23/19 A2993 RMK AO2 PK WND 14041/0930 SLP129 P0001 T02330194
KJAN 220854Z AUTO 15018G25KT 10SM -RA BKN100 BKN110 23/21 A2999 RMK AO2 PK WND 16027/0844 SLP149 P0002 60003 T02280206 58025
KJAN 220754Z AUTO 16015KT 10SM -RA FEW050 FEW095 BKN120 23/21 A3004 RMK AO2 RAB46 SLP167 P0000 T02330206
KJAN 220654Z AUTO 16014KT 10SM CLR 23/21 A3004 RMK AO2 RAE41 SLP168 P0001 T02330211
KJAN 220554Z AUTO 15013KT 10SM -RA FEW110 23/21 A3006 RMK AO2 RAB10 SLP175 P0000 60000 T02330211 10261 20233 403000172 58016
KJAN 220454Z AUTO 15010KT 10SM CLR 24/21 A3011 RMK AO2 RAB36E46 SLP190 P0000 T02440211
KJAN 220354Z 13010KT 10SM BKN070 24/21 A3011 RMK AO2 SLP190 T02440211
KJAN 220254Z 12007KT 10SM FEW027 SCT050 BKN060 25/21 A3011 RMK AO2 RAB22E35 SLP191 P0000 60000 T02500211 53020
KJAN 220154Z 12007KT 10SM BKN050 26/21 A3009 RMK AO2 SLP185 T02560211
KJAN 220054Z 11010KT 10SM FEW031 BKN047 26/21 A3005 RMK AO2 LTG DSNT N AND NW SLP173 CB DSNT N AND NW T02610211
KJAN 212354Z 12008KT 10SM OVC060 26/22 A3005 RMK AO2 LTG DSNT NW RAB2256E47 SLP171 CB DSNT NW P0001 60001 T02610217 10300 20256 53004
KJAN 212254Z 11009KT 10SM OVC070 27/21 A3005 RMK AO2 RAB17E50 SLP172 P0000 T02720211
KJAN 212154Z 14011KT 10SM SCT034 BKN046 BKN080 28/21 A3003 RMK AO2 SLP166 T02830206
KJAN 212054Z 12009KT 10SM SCT032 BKN042 29/21 A3004 RMK AO2 SLP167 T02890206 58008
KJAN 211954Z 14008G16KT 10SM SCT028 BKN034 BKN042 29/21 A3005 RMK AO2 SLP171 T02940211
KJAN 211939Z 13012KT 10SM BKN028 OVC036 29/21 A3006 RMK AO2 T02890211
KJAN 211926Z 14010KT 10SM SCT027 BKN036 28/21 A3006 RMK AO2 T02830211
KJAN 211854Z 14012KT 10SM BKN029 BKN036 BKN070 29/21 A3006 RMK AO2 SLP175 T02890211
KJAN 211834Z 15012KT 10SM SCT029 SCT070 29/21 A3007 RMK AO2 T02940211
KJAN 211807Z 14013KT 10SM BKN026 29/21 A3008 RMK AO2 T02890206
KJAN 211754Z 14014KT 10SM SCT027 BKN100 29/21 A3008 RMK AO2 SLP182 T02890206 10294 20178 58013
KJAN 211654Z 16012G19KT 10SM SCT075 BKN250 28/21 A3011 RMK AO2 SLP192 T02780206
KJAN 211554Z 15012G19KT 10SM FEW090 BKN250 27/20 A3012 RMK AO2 SLP196 T02670200
KJAN 211454Z 14012KT 10SM FEW100 BKN250 24/18 A3012 RMK AO2 SLP197 T02440183 53008
KJAN 211354Z 13006KT 10SM SCT250 22/16 A3012 RMK AO2 SLP194 T02220161
KJAN 211254Z 10006KT 10SM SCT250 20/14 A3010 RMK AO2 SLP190 T02000144
KJAN 211154Z 00000KT 10SM SCT250 18/14 A3010 RMK AO2 SLP189 T01780144 10217 20172 53009
KJAN 211054Z 00000KT 10SM CLR 18/14 A3008 RMK AO2 SLP183 T01830144
KJAN 210954Z 14004KT 10SM CLR 19/15 A3007 RMK AO2 SLP180 T01890150
KJAN 210854Z 15006KT 10SM CLR 20/15 A3007 RMK AO2 SLP179 T02000150 58005
KJAN 210754Z 13009KT 10SM CLR 21/15 A3007 RMK AO2 SLP179 T02110150
KJAN 210654Z 14006KT 10SM CLR 21/16 A3009 RMK AO2 SLP183 T02110156
KJAN 210554Z 12009KT 10SM CLR 22/16 A3009 RMK AO2 SLP183 T02220156 10228 20200 402890122 56006
KJAN 210454Z 12006KT 10SM CLR 22/17 A3010 RMK AO2 SLP188 T02170172
KJAN 210354Z 12007KT 10SM CLR 22/17 A3009 RMK AO2 SLP186 T02170167
KJAN 210254Z 11006KT 10SM CLR 22/17 A3010 RMK AO2 SLP190 T02170167 53007
KJAN 210154Z 09006KT 10SM CLR 22/17 A3009 RMK AO2 SLP186 T02220167
KJAN 210054Z 09005KT 10SM SCT250 21/17 A3009 RMK AO2 SLP186 T02060172
KJAN 202354Z 10004KT 10SM FEW055 BKN250 23/17 A3008 RMK AO2 SLP184 T02280167 10289 20222 55001
KJAN 202254Z 09004KT 10SM BKN250 26/16 A3008 RMK AO2 SLP184 T02560161
KJAN 202154Z 14009KT 10SM BKN250 27/16 A3009 RMK AO2 SLP185 T02720161
KJAN 202054Z 12008KT 10SM FEW050 BKN250 28/16 A3009 RMK AO2 SLP184 T02780156 56024
KJAN 201954Z 13008KT 10SM FEW050 BKN250 28/16 A3010 RMK AO2 SLP190 T02780156
KJAN 201854Z 16010KT 10SM FEW050 BKN250 29/15 A3012 RMK AO2 SLP196 T02890150
KJAN 201754Z 14009KT 090V160 10SM BKN250 27/16 A3016 RMK AO2 SLP210 T02720156 10272 20122 58022
KJAN 201654Z 12008KT 10SM BKN250 26/14 A3019 RMK AO2 SLP219 T02560144
KJAN 201554Z 14009KT 10SM BKN250 24/14 A3020 RMK AO2 SLP223 T02440144
KJAN 201454Z 11005KT 10SM BKN250 21/16 A3022 RMK AO2 SLP232 T02110156 53005
KJAN 201354Z 00000KT 10SM BKN250 18/14 A3022 RMK AO2 SLP230 T01830144
KJAN 201254Z 00000KT 10SM BKN250 15/13 A3021 RMK AO2 SLP226 T01500133
KJAN 201154Z 00000KT 10SM FEW250 13/12 A3021 RMK AO2 SLP226 T01330117 10156 20133 53009
KJAN 201054Z AUTO 00000KT 10SM CLR 14/12 A3019 RMK AO2 SLP219 T01390122
KJAN 200954Z AUTO 00000KT 10SM CLR 14/12 A3018 RMK AO2 SLP217 T01390117
KJAN 200854Z AUTO 13003KT 10SM CLR 14/12 A3018 RMK AO2 SLP216 T01440122 58005
KJAN 200754Z AUTO 00000KT 10SM CLR 14/12 A3019 RMK AO2 SLP219 T01390122
KJAN 200654Z AUTO 00000KT 10SM CLR 15/13 A3019 RMK AO2 SLP221 T01500128
KJAN 200554Z AUTO 00000KT 10SM CLR 14/12 A3019 RMK AO2 SLP222 T01390122 10200 20139 402780083 58003
KJAN 200454Z AUTO 15003KT 10SM CLR 17/14 A3020 RMK AO2 SLP223 T01670139
KJAN 200354Z 11007KT 10SM CLR 19/14 A3020 RMK AO2 SLP223 T01890144
KJAN 200254Z 00000KT 10SM CLR 16/14 A3020 RMK AO2 SLP224 T01610139 51012
KJAN 200154Z 00000KT 10SM CLR 17/14 A3019 RMK AO2 SLP219 T01720144
KJAN 200054Z 00000KT 10SM CLR 18/14 A3018 RMK AO2 SLP220 T01780144
KJAN 192354Z 00000KT 10SM CLR 19/14 A3017 RMK AO2 SLP213 T01940144 10278 20194 55001
KJAN 192254Z 00000KT 10SM BKN250 23/16 A3016 RMK AO2 SLP211 T02330161
KJAN 192154Z 08004KT 10SM BKN250 26/14 A3016 RMK AO2 SLP209 T02610139